Time;durP1;ratioP1;P1;durP2;ratioP2;P2;SDS_P1;SDS_P2;PMS_P1;PMS_P2;Temp;Humidity;BMP_temperature;BMP_pressure;BME280_temperature;BME280_humidity;BME280_pressure;Samples;Min_cycle;Max_cycle;Signal;HPM_P1;HPM_P2
2022/08/04 00:01:32;;;;;;;4.47;2.55;;;;;;;22.33;51.72;100018.69;4490773;31;33536;-80
2022/08/04 00:04:08;;;;;;;3.75;2.30;;;;;;;23.23;48.83;100000.94;4494246;31;33957;-79
2022/08/04 00:06:48;;;;;;;5.70;2.45;;;;;;;23.51;48.17;100012.28;4488923;31;34433;-78
2022/08/04 00:09:25;;;;;;;5.25;2.37;;;;;;;23.55;46.97;100019.31;4497113;31;33425;-77
2022/08/04 00:11:53;;;;;;;5.60;3.00;;;;;;;23.75;46.87;100021.84;4500238;31;33463;-77
2022/08/04 00:14:22;;;;;;;6.12;2.62;;;;;;;23.18;48.60;100008.03;4494316;31;34083;-79
2022/08/04 00:16:51;;;;;;;6.65;2.92;;;;;;;23.25;48.59;100009.75;4500571;31;33685;-79
2022/08/04 00:19:37;;;;;;;10.95;2.83;;;;;;;23.57;47.99;100011.38;4488756;31;33129;-80
2022/08/04 00:22:08;;;;;;;4.68;2.60;;;;;;;23.70;47.57;100012.19;4495824;31;33633;-80
2022/08/04 00:24:36;;;;;;;11.82;2.90;;;;;;;23.44;47.77;100010.56;4497690;31;34649;-79
2022/08/04 00:27:04;;;;;;;5.72;3.15;;;;;;;23.35;48.08;100008.84;4500800;31;33875;-78
2022/08/04 00:29:33;;;;;;;5.00;2.50;;;;;;;23.24;48.47;100017.72;4495481;31;34520;-77
2022/08/04 00:32:00;;;;;;;4.72;2.70;;;;;;;22.70;47.93;100020.44;4501725;31;33924;-79
2022/08/04 00:34:30;;;;;;;6.15;2.53;;;;;;;23.30;47.05;100013.25;4492659;31;33968;-76
2022/08/04 00:36:58;;;;;;;6.60;2.87;;;;;;;22.70;48.94;100016.03;4493103;31;34557;-79
2022/08/04 00:39:26;;;;;;;4.25;2.22;;;;;;;22.82;48.31;100017.75;4491099;31;33336;-79
2022/08/04 00:42:22;;;;;;;5.00;2.90;;;;;;;23.01;47.11;100015.97;4500236;31;34001;-80
2022/08/04 00:44:49;;;;;;;4.15;2.60;;;;;;;22.83;47.19;100011.62;4499117;31;34757;-80
2022/08/04 00:47:35;;;;;;;6.25;2.58;;;;;;;22.69;47.83;100021.31;4500029;31;34166;-79
2022/08/04 00:50:15;;;;;;;4.20;2.22;;;;;;;22.53;47.47;100023.94;4494765;31;33379;-79
2022/08/04 00:52:46;;;;;;;5.78;2.42;;;;;;;22.22;47.38;100027.44;4484552;31;33808;-80
2022/08/04 00:55:28;;;;;;;4.97;2.15;;;;;;;22.19;47.33;100029.22;4492398;31;33884;-77
2022/08/04 00:58:25;;;;;;;3.12;2.00;;;;;;;22.78;46.21;100030.09;4500017;31;34717;-77
2022/08/04 01:01:00;;;;;;;5.00;2.50;;;;;;;22.88;46.15;100024.81;4500897;31;33515;-77
2022/08/04 01:03:34;;;;;;;4.03;2.42;;;;;;;22.83;46.13;100027.47;4491109;31;32471;-79
2022/08/04 01:06:20;;;;;;;3.90;2.53;;;;;;;22.84;46.21;100026.56;4500599;31;34522;-77
2022/08/04 01:08:56;;;;;;;4.80;2.28;;;;;;;23.00;46.54;100029.19;4500988;31;33951;-78
2022/08/04 01:11:36;;;;;;;3.75;2.40;;;;;;;21.97;50.42;100032.69;4486600;31;32723;-76
2022/08/04 01:14:51;;;;;;;4.45;2.65;;;;;;;22.21;50.96;100031.81;4488390;31;33825;-77
2022/08/04 01:17:19;;;;;;;;;;;;;;;22.21;52.45;100029.19;4493536;31;33933;-79
2022/08/04 01:19:53;;;;;;;3.95;2.30;;;;;;;21.91;51.48;100027.41;4492109;31;35081;-80
2022/08/04 01:22:33;;;;;;;4.12;2.47;;;;;;;21.60;52.60;100033.44;4501892;31;34346;-79
2022/08/04 01:25:24;;;;;;;3.58;2.30;;;;;;;21.71;52.79;100030.87;4493063;31;33942;-79
2022/08/04 01:28:25;;;;;;;6.50;2.97;;;;;;;21.45;53.62;100021.97;4496219;31;34082;-77
2022/08/04 01:30:56;;;;;;;6.05;2.72;;;;;;;22.62;50.15;100032.75;4497578;31;33647;-80
2022/08/04 01:33:28;;;;;;;6.47;2.95;;;;;;;22.32;50.78;100026.59;4493176;31;33128;-77
2022/08/04 01:36:04;;;;;;;6.47;3.10;;;;;;;22.71;49.62;100022.19;4495365;31;34539;-80
2022/08/04 01:38:34;;;;;;;7.45;2.95;;;;;;;22.51;49.78;100025.72;4498723;31;33676;-79
2022/08/04 01:41:08;;;;;;;5.30;2.50;;;;;;;22.60;49.51;100031.88;4492566;31;32871;-81
2022/08/04 01:43:40;;;;;;;6.25;2.50;;;;;;;22.86;48.70;100024.78;4497880;31;34182;-78
2022/08/04 01:46:10;;;;;;;6.28;2.53;;;;;;;22.34;49.77;100032.75;4500095;31;33989;-77
2022/08/04 01:48:39;;;;;;;5.47;2.70;;;;;;;22.47;49.28;100034.53;4501501;31;34338;-77
2022/08/04 01:51:08;;;;;;;7.07;2.62;;;;;;;21.88;50.86;100032.66;4499852;31;33533;-77
2022/08/04 01:53:41;;;;;;;4.93;2.70;;;;;;;21.71;51.65;100029.97;4500942;31;34042;-79
2022/08/04 01:56:10;;;;;;;5.57;2.25;;;;;;;22.02;50.92;100035.31;4499368;31;33833;-78
2022/08/04 01:58:39;;;;;;;4.18;2.58;;;;;;;21.69;51.68;100031.72;4486040;31;33747;-77
2022/08/04 02:01:11;;;;;;;4.30;2.22;;;;;;;21.47;52.21;100025.50;4499391;31;33443;-79
2022/08/04 02:03:41;;;;;;;5.12;2.37;;;;;;;22.18;50.25;100018.66;4495177;31;33455;-79
2022/08/04 02:06:35;;;;;;;4.00;2.12;;;;;;;22.29;50.07;100018.66;4488713;31;33575;-79
2022/08/04 02:09:22;;;;;;;7.62;2.78;;;;;;;22.43;49.85;100024.84;4499927;31;33866;-77
2022/08/04 02:12:03;;;;;;;5.18;2.55;;;;;;;22.27;50.12;100025.69;4492527;31;33765;-78
2022/08/04 02:14:40;;;;;;;3.72;2.47;;;;;;;21.56;52.18;100020.28;4496970;31;34272;-77
2022/08/04 02:17:13;;;;;;;6.93;2.40;;;;;;;21.65;51.89;100020.28;4491316;31;33835;-78
2022/08/04 02:19:54;;;;;;;5.00;2.50;;;;;;;21.35;52.80;100011.34;4498393;31;34044;-77
2022/08/04 02:22:24;;;;;;;5.65;2.62;;;;;;;21.53;52.35;100014.97;4495080;31;33816;-77
2022/08/04 02:25:00;;;;;;;4.20;2.40;;;;;;;21.52;52.50;100010.59;4489608;31;32582;-77
2022/08/04 02:27:37;;;;;;;7.50;2.70;;;;;;;21.40;52.80;100014.91;4490467;31;33713;-77
2022/08/04 02:30:31;;;;;;;6.22;2.60;;;;;;;21.28;53.08;100020.09;4493332;31;34028;-78
2022/08/04 02:33:02;;;;;;;3.90;2.58;;;;;;;21.54;52.32;100014.13;4495512;31;34080;-77
2022/08/04 02:35:35;;;;;;;3.50;2.37;;;;;;;21.74;51.72;100015.03;4488948;31;33025;-80
2022/08/04 02:38:23;;;;;;;4.15;2.50;;;;;;;21.44;53.14;100010.56;4498177;31;34464;-79
2022/08/04 02:40:54;;;;;;;5.22;2.65;;;;;;;21.58;53.09;100007.97;4493188;31;34278;-79
2022/08/04 02:43:27;;;;;;;8.45;2.78;;;;;;;22.29;51.11;100016.03;4495236;31;34581;-79
2022/08/04 02:46:17;;;;;;;4.78;2.80;;;;;;;22.40;51.05;100022.19;4496964;31;33429;-78
2022/08/04 02:48:46;;;;;;;6.25;3.08;;;;;;;22.22;51.33;100014.25;4489588;31;33127;-78
2022/08/04 02:51:16;;;;;;;4.40;2.87;;;;;;;22.08;51.99;100009.84;4493352;31;33771;-77
2022/08/04 02:53:45;;;;;;;4.90;2.83;;;;;;;21.61;53.34;100013.25;4500101;31;32990;-78
2022/08/04 02:56:14;;;;;;;5.43;2.70;;;;;;;21.44;53.67;100010.56;4493138;31;33344;-78
2022/08/04 02:58:45;;;;;;;7.22;3.37;;;;;;;21.68;53.15;100017.66;4489810;31;33609;-77
2022/08/04 03:01:13;;;;;;;5.62;3.10;;;;;;;21.72;52.75;100014.16;4488041;31;33947;-77
2022/08/04 03:03:51;;;;;;;5.72;2.85;;;;;;;22.21;51.35;100015.12;4498118;31;33954;-78
2022/08/04 03:06:52;;;;;;;7.32;3.03;;;;;;;21.92;52.48;100010.69;4493787;31;33473;-79
2022/08/04 03:09:45;;;;;;;5.10;2.78;;;;;;;21.55;53.94;100013.22;4496287;31;33857;-78
2022/08/04 03:12:28;;;;;;;5.97;3.30;;;;;;;22.11;52.78;100015.09;4496773;31;34192;-78
2022/08/04 03:15:08;;;;;;;5.72;2.78;;;;;;;21.61;54.10;100023.78;4487160;31;33661;-78
2022/08/04 03:18:00;;;;;;;5.32;2.87;;;;;;;21.58;54.25;100013.25;4487996;31;33378;-79
2022/08/04 03:20:59;;;;;;;9.50;3.37;;;;;;;21.44;54.82;100014.94;4502053;31;33955;-78
2022/08/04 03:24:06;;;;;;;5.32;3.00;;;;;;;21.24;55.30;100018.34;4498316;31;33887;-79
2022/08/04 03:27:04;;;;;;;6.00;3.37;;;;;;;21.08;56.12;100021.78;4497544;31;33906;-79
2022/08/04 03:29:57;;;;;;;4.62;3.10;;;;;;;21.16;56.63;100017.41;4493961;31;33253;-79
2022/08/04 03:32:40;;;;;;;6.72;3.60;;;;;;;21.78;54.60;100022.06;4487624;31;33912;-78
2022/08/04 03:35:53;;;;;;;6.10;3.37;;;;;;;21.71;54.52;100024.69;4496778;31;33981;-79
2022/08/04 03:38:43;;;;;;;5.47;3.50;;;;;;;21.89;54.10;100018.59;4500657;31;33243;-79
2022/08/04 03:41:28;;;;;;;5.10;3.47;;;;;;;21.53;55.59;100021.13;4488200;31;33604;-79
2022/08/04 03:44:32;;;;;;;5.60;3.40;;;;;;;21.85;54.77;100027.37;4500017;31;33694;-79
2022/08/04 03:47:31;;;;;;;8.05;3.40;;;;;;;21.76;55.17;100022.97;4489870;31;33937;-79
2022/08/04 03:50:26;;;;;;;8.60;3.80;;;;;;;21.57;55.79;100022.00;4493488;31;34442;-79
2022/08/04 03:53:09;;;;;;;8.23;4.25;;;;;;;21.94;54.83;100027.37;4485993;31;33239;-79
2022/08/04 03:55:43;;;;;;;8.40;4.05;;;;;;;22.28;53.82;100032.75;4499960;31;34646;-79
2022/08/04 03:58:42;;;;;;;8.13;4.23;;;;;;;22.49;53.26;100027.47;4494017;31;34758;-79
2022/08/04 04:01:34;;;;;;;7.07;3.65;;;;;;;22.75;52.13;100031.84;4498752;31;34316;-78
2022/08/04 04:04:42;;;;;;;9.20;4.30;;;;;;;21.69;55.05;100037.88;4490401;31;33548;-78
2022/08/04 04:07:26;;;;;;;8.30;4.20;;;;;;;21.17;57.08;100042.88;4491605;31;33838;-78
2022/08/04 04:10:15;;;;;;;8.20;3.97;;;;;;;21.48;56.86;100037.78;4488536;31;33675;-78
2022/08/04 04:13:15;;;;;;;7.50;4.05;;;;;;;21.83;56.27;100034.38;4490183;31;33909;-78
2022/08/04 04:16:05;;;;;;;;;;;;;;;21.36;58.14;100033.31;4497556;31;33507;-78
2022/08/04 04:19:11;;;;;;;9.93;4.35;;;;;;;21.50;58.11;100038.66;4493247;31;34283;-79
2022/08/04 04:22:03;;;;;;;8.40;4.20;;;;;;;22.06;56.37;100037.06;4500463;31;33812;-79
2022/08/04 04:24:40;;;;;;;7.82;3.80;;;;;;;22.15;56.25;100032.69;4492265;31;34027;-79
2022/08/04 04:27:17;;;;;;;9.27;4.90;;;;;;;22.69;54.46;100040.66;4496471;31;34204;-79
2022/08/04 04:30:06;;;;;;;7.55;4.50;;;;;;;22.83;54.25;100038.03;4492904;31;33332;-79
2022/08/04 04:32:36;;;;;;;7.20;4.45;;;;;;;23.15;53.47;100039.75;4498151;31;34540;-79
2022/08/04 04:35:29;;;;;;;7.57;3.72;;;;;;;23.39;52.82;100040.53;4490464;31;34043;-79
2022/08/04 04:38:09;;;;;;;7.60;4.28;;;;;;;23.44;52.74;100036.13;4492955;31;33294;-79
2022/08/04 04:40:54;;;;;;;8.90;4.05;;;;;;;23.41;52.74;100046.69;4501510;31;33775;-78
2022/08/04 04:43:31;;;;;;;7.62;4.32;;;;;;;22.75;54.59;100045.06;4497153;31;34808;-78
2022/08/04 04:46:45;;;;;;;12.27;4.90;;;;;;;22.30;55.52;100054.75;4488222;31;33161;-79
2022/08/04 04:49:18;;;;;;;11.43;4.37;;;;;;;23.12;53.23;100043.28;4486272;31;32949;-78
2022/08/04 04:51:52;;;;;;;8.70;4.43;;;;;;;23.21;52.39;100044.13;4502062;31;34782;-79
2022/08/04 04:54:37;;;;;;;9.73;4.70;;;;;;;23.09;52.69;100047.69;4500517;31;33799;-80
2022/08/04 04:57:14;;;;;;;7.90;4.20;;;;;;;22.93;53.57;100052.97;4489625;31;33842;-79
2022/08/04 04:59:49;;;;;;;8.10;4.00;;;;;;;23.05;53.59;100056.50;4485057;31;32196;-78
2022/08/04 05:02:50;;;;;;;7.22;4.03;;;;;;;22.87;55.64;100058.25;4494064;31;33660;-79
2022/08/04 05:05:33;;;;;;;9.60;4.70;;;;;;;22.90;55.44;100050.31;4500826;31;33740;-78
2022/08/04 05:08:12;;;;;;;7.30;4.03;;;;;;;23.26;54.55;100059.09;4490757;31;34549;-79
2022/08/04 05:11:18;;;;;;;6.70;3.80;;;;;;;23.74;53.55;100054.50;4496526;31;33295;-79
2022/08/04 05:13:49;;;;;;;7.68;4.65;;;;;;;23.90;52.75;100059.75;4492542;31;33901;-79
2022/08/04 05:16:44;;;;;;;10.60;4.07;;;;;;;23.99;52.39;100062.34;4486161;31;32950;-78
2022/08/04 05:19:37;;;;;;;8.60;4.40;;;;;;;24.29;51.96;100065.66;4497298;31;33915;-79
2022/08/04 05:22:32;;;;;;;7.40;3.10;;;;;;;24.33;52.18;100067.41;4493828;31;33444;-79
2022/08/04 05:25:06;;;;;;;8.05;2.90;;;;;;;24.32;50.34;100060.34;4480550;31;33804;-79
2022/08/04 05:27:38;;;;;;;9.13;3.00;;;;;;;24.56;48.52;100063.72;4479494;31;33494;-79
2022/08/04 05:30:07;;;;;;;7.47;3.10;;;;;;;24.54;47.49;100066.38;4492075;31;34437;-79
2022/08/04 05:32:50;;;;;;;4.80;2.83;;;;;;;24.63;46.95;100065.44;4500273;31;32100;-79
2022/08/04 05:35:28;;;;;;;4.75;2.45;;;;;;;24.92;45.42;100076.66;4490713;31;34538;-79
2022/08/04 05:38:19;;;;;;;4.45;2.53;;;;;;;24.88;44.94;100072.28;4490166;31;33681;-78
2022/08/04 05:40:46;;;;;;;5.57;2.70;;;;;;;24.89;44.20;100074.00;4495820;31;33698;-79
2022/08/04 05:43:14;;;;;;;4.55;2.50;;;;;;;25.08;43.33;100068.53;4489825;31;32973;-79
2022/08/04 05:45:43;;;;;;;4.45;2.15;;;;;;;25.50;42.62;100061.03;4473825;31;34663;-79
2022/08/04 05:48:11;;;;;;;7.22;2.50;;;;;;;25.54;42.21;100073.38;4489086;31;33928;-79
2022/08/04 05:50:38;;;;;;;4.45;2.40;;;;;;;25.76;42.13;100067.78;4491059;31;32777;-78
2022/08/04 05:53:08;;;;;;;4.50;2.35;;;;;;;25.79;41.70;100068.63;4493020;31;32627;-79
2022/08/04 05:55:36;;;;;;;4.82;2.17;;;;;;;25.56;41.65;100078.66;4487626;31;34163;-80
2022/08/04 05:58:24;;;;;;;3.60;2.42;;;;;;;25.66;41.64;100067.03;4498515;31;34500;-80
2022/08/04 06:00:53;;;;;;;4.50;2.47;;;;;;;25.82;40.80;100070.34;4493173;31;33645;-80
2022/08/04 06:03:21;;;;;;;6.45;2.40;;;;;;;26.07;39.86;100073.56;4488348;31;33302;-78
2022/08/04 06:05:49;;;;;;;4.12;2.30;;;;;;;25.98;39.65;100077.25;4495942;31;34083;-80
2022/08/04 06:08:16;;;;;;;4.28;2.55;;;;;;;25.85;40.18;100075.63;4491199;31;33689;-81
2022/08/04 06:10:45;;;;;;;4.62;2.30;;;;;;;26.42;40.34;100075.69;4487140;31;33991;-78
2022/08/04 06:13:16;;;;;;;3.85;2.37;;;;;;;26.82;38.98;100074.19;4489854;31;33437;-79
2022/08/04 06:16:05;;;;;;;6.45;2.30;;;;;;;26.65;38.88;100077.13;4496725;31;33758;-79
2022/08/04 06:18:35;;;;;;;7.70;2.28;;;;;;;26.24;39.04;100076.84;4488326;31;34771;-77
2022/08/04 06:21:25;;;;;;;7.03;2.37;;;;;;;26.46;39.01;100066.78;4496714;31;34275;-76
2022/08/04 06:23:54;;;;;;;5.18;2.42;;;;;;;26.66;39.02;100073.59;4488199;31;34131;-79
2022/08/04 06:26:33;;;;;;;5.82;2.28;;;;;;;27.02;38.16;100077.37;4489050;31;33818;-79
2022/08/04 06:29:03;;;;;;;7.37;2.50;;;;;;;27.00;38.16;100079.16;4496889;31;33972;-79
2022/08/04 06:31:42;;;;;;;4.00;2.30;;;;;;;27.36;37.64;100074.09;4491764;31;33321;-78
2022/08/04 06:34:30;;;;;;;9.55;2.30;;;;;;;27.37;37.84;100078.53;4492569;31;33906;-79
2022/08/04 06:36:58;;;;;;;6.00;2.30;;;;;;;27.70;37.28;100077.84;4489831;31;34646;-77
2022/08/04 06:39:26;;;;;;;4.68;2.33;;;;;;;27.64;36.86;100071.75;4489938;31;33704;-81
2022/08/04 06:41:55;;;;;;;3.75;2.28;;;;;;;27.84;35.81;100079.31;4493400;31;34111;-77
2022/08/04 06:44:49;;;;;;;3.92;2.40;;;;;;;27.97;36.60;100085.28;4489962;31;33735;-76
2022/08/04 06:47:18;;;;;;;5.00;2.60;;;;;;;27.54;37.13;100075.50;4493766;31;33875;-79
2022/08/04 06:49:48;;;;;;;5.20;2.17;;;;;;;27.51;36.62;100072.91;4490828;31;34261;-79
2022/08/04 06:52:36;;;;;;;4.82;2.42;;;;;;;27.69;36.52;100063.66;4489651;31;34490;-78
2022/08/04 06:55:06;;;;;;;9.05;3.17;;;;;;;28.10;36.25;100063.69;4491650;31;34303;-77
2022/08/04 06:57:34;;;;;;;4.95;2.60;;;;;;;27.98;35.98;100071.03;4486270;31;32555;-76
2022/08/04 07:00:05;;;;;;;4.35;2.42;;;;;;;28.66;34.47;100074.78;4494819;31;33908;-78
2022/08/04 07:02:38;;;;;;;4.72;2.30;;;;;;;29.05;33.97;100077.31;4497123;31;33890;-78
2022/08/04 07:05:06;;;;;;;5.62;2.10;;;;;;;29.16;33.65;100069.94;4490119;31;33004;-80
2022/08/04 07:07:35;;;;;;;6.30;2.12;;;;;;;29.47;33.14;100069.06;4476178;31;33910;-78
2022/08/04 07:10:04;;;;;;;4.53;2.40;;;;;;;30.22;32.07;100068.63;4495551;31;33815;-77
2022/08/04 07:12:32;;;;;;;4.97;2.00;;;;;;;31.08;30.99;100065.78;4498390;31;33962;-78
2022/08/04 07:15:00;;;;;;;7.43;2.15;;;;;;;31.70;29.86;100071.59;4491107;31;34364;-78
2022/08/04 07:17:29;;;;;;;7.85;2.40;;;;;;;32.43;28.69;100069.59;4498999;31;34655;-79
2022/08/04 07:20:03;;;;;;;4.78;2.03;;;;;;;32.70;28.38;100072.97;4494272;31;34062;-77
2022/08/04 07:22:32;;;;;;;4.05;2.30;;;;;;;32.42;28.31;100076.78;4497885;31;33983;-77
2022/08/04 07:24:59;;;;;;;4.47;1.83;;;;;;;32.79;27.47;100072.59;4488254;31;33290;-78
2022/08/04 07:27:27;;;;;;;4.07;2.12;;;;;;;32.69;28.20;100074.78;4495089;31;33975;-76
2022/08/04 07:30:16;;;;;;;3.78;2.15;;;;;;;33.26;27.49;100066.09;4493519;31;33899;-77
2022/08/04 07:32:49;;;;;;;4.87;1.98;;;;;;;33.44;26.61;100065.28;4486861;31;33832;-79
2022/08/04 07:35:17;;;;;;;5.82;1.87;;;;;;;34.05;25.64;100055.28;4500774;31;33477;-80
2022/08/04 07:38:05;;;;;;;5.12;2.10;;;;;;;34.85;24.54;100062.12;4488888;31;33760;-77
2022/08/04 07:40:36;;;;;;;10.18;2.10;;;;;;;36.19;23.10;100061.13;4495973;31;33967;-77
2022/08/04 07:43:04;;;;;;;3.37;1.58;;;;;;;37.02;22.27;100068.88;4491572;31;32282;-76
2022/08/04 07:45:32;;;;;;;5.57;1.77;;;;;;;37.46;21.51;100056.31;4502417;31;34187;-78
2022/08/04 07:48:00;;;;;;;4.28;1.75;;;;;;;38.02;20.45;100054.53;4495684;31;33969;-79
2022/08/04 07:50:33;;;;;;;5.07;1.90;;;;;;;38.80;19.93;100050.28;4492513;31;34006;-76
2022/08/04 07:53:01;;;;;;;4.05;1.60;;;;;;;39.59;18.33;100041.09;4489922;31;33865;-78
2022/08/04 07:55:48;;;;;;;4.85;1.60;;;;;;;39.84;18.08;100037.44;4493082;31;33192;-77
2022/08/04 07:58:16;;;;;;;4.93;1.70;;;;;;;40.61;17.36;100041.72;4499179;31;34002;-77
2022/08/04 08:00:45;;;;;;;8.50;1.80;;;;;;;40.27;17.49;100042.41;4492697;31;34022;-77
2022/08/04 08:03:14;;;;;;;3.78;1.73;;;;;;;40.33;17.26;100038.38;4487293;31;34711;-76
2022/08/04 08:05:47;;;;;;;4.20;2.15;;;;;;;40.46;17.41;100039.19;4494777;31;33930;-79
2022/08/04 08:08:38;;;;;;;4.87;1.62;;;;;;;40.44;17.11;100041.16;4496410;31;34070;-78
2022/08/04 08:11:08;;;;;;;2.78;1.75;;;;;;;40.25;17.16;100036.22;4497305;31;32998;-76
2022/08/04 08:13:36;;;;;;;4.93;1.95;;;;;;;40.54;17.18;100035.88;4492924;31;34477;-79
2022/08/04 08:16:04;;;;;;;3.70;1.80;;;;;;;39.66;17.73;100034.25;4495788;31;33198;-76
2022/08/04 08:18:31;;;;;;;7.18;1.92;;;;;;;40.15;17.79;100039.75;4489261;31;34652;-77
2022/08/04 08:21:00;;;;;;;5.80;1.80;;;;;;;40.56;17.25;100036.63;4490011;31;33987;-80
2022/08/04 08:23:29;;;;;;;4.85;1.80;;;;;;;41.59;16.32;100027.66;4500638;31;33974;-75
2022/08/04 08:25:57;;;;;;;5.15;1.75;;;;;;;41.09;16.64;100030.75;4492835;31;33345;-77
2022/08/04 08:28:25;;;;;;;6.90;1.65;;;;;;;41.26;16.50;100038.44;4491306;31;33937;-78
2022/08/04 08:30:53;;;;;;;2.72;1.62;;;;;;;40.23;16.99;100031.91;4487934;31;34068;-81
2022/08/04 08:33:25;;;;;;;4.05;2.08;;;;;;;40.21;17.13;100033.87;4494542;31;34341;-77
2022/08/04 08:35:56;;;;;;;4.20;1.67;;;;;;;39.99;17.94;100032.78;4491406;31;33234;-77
2022/08/04 08:38:34;;;;;;;4.93;1.95;;;;;;;40.26;17.56;100040.69;4492527;31;33112;-77
2022/08/04 08:41:34;;;;;;;3.87;1.90;;;;;;;39.86;17.55;100034.63;4490918;31;34766;-78
2022/08/04 08:44:17;;;;;;;6.45;1.90;;;;;;;40.26;17.10;100042.53;4449533;31;34520;-77
2022/08/04 08:47:33;;;;;;;4.35;1.70;;;;;;;38.53;18.50;100038.50;4492507;31;34100;-77
2022/08/04 08:50:35;;;;;;;4.97;2.00;;;;;;;39.59;18.06;100032.09;4498207;31;33961;-76
2022/08/04 08:53:21;;;;;;;7.60;1.90;;;;;;;39.50;18.18;100031.81;4485404;31;33708;-81
2022/08/04 08:56:12;;;;;;;3.17;1.90;;;;;;;38.81;18.46;100031.22;4493132;31;33595;-77
2022/08/04 08:58:59;;;;;;;3.10;1.73;;;;;;;38.32;19.38;100038.09;4477198;32;33414;-79
2022/08/04 09:01:51;;;;;;;4.65;1.58;;;;;;;38.36;18.93;100033.34;4490328;31;33650;-77
2022/08/04 09:04:25;;;;;;;5.87;2.33;;;;;;;38.42;18.76;100029.38;4487157;31;33722;-78
2022/08/04 09:07:22;;;;;;;3.35;2.10;;;;;;;38.16;19.40;100035.56;4492242;31;34840;-78
2022/08/04 09:10:04;;;;;;;6.40;1.87;;;;;;;37.34;20.39;100025.50;4491565;31;33145;-76
2022/08/04 09:12:46;;;;;;;4.65;1.85;;;;;;;37.94;19.85;100029.81;4498917;31;33734;-76
2022/08/04 09:15:33;;;;;;;3.22;1.90;;;;;;;38.01;19.90;100030.28;4498105;31;33530;-78
2022/08/04 09:18:06;;;;;;;4.00;1.85;;;;;;;37.30;20.03;100029.38;4489302;31;34431;-77
2022/08/04 09:20:48;;;;;;;2.85;1.95;;;;;;;37.15;20.07;100029.38;4488390;31;33380;-77
2022/08/04 09:23:42;;;;;;;3.00;2.05;;;;;;;36.69;20.44;100031.31;4488458;31;33923;-79
2022/08/04 09:26:20;;;;;;;3.60;1.80;;;;;;;36.93;20.86;100032.50;4500695;31;34334;-79
2022/08/04 09:28:58;;;;;;;4.78;1.80;;;;;;;37.12;20.63;100028.69;4493401;31;34566;-78
2022/08/04 09:31:37;;;;;;;5.05;2.47;;;;;;;36.37;20.98;100034.06;4490817;31;34149;-78
2022/08/04 09:34:59;;;;;;;3.67;1.70;;;;;;;35.94;21.28;100026.59;4495123;31;34462;-79
2022/08/04 09:37:41;;;;;;;3.67;2.00;;;;;;;36.56;21.09;100023.91;4493786;31;33921;-76
2022/08/04 09:40:51;;;;;;;4.30;2.10;;;;;;;36.01;21.67;100027.13;4489148;31;34044;-78
2022/08/04 09:43:31;;;;;;;3.80;2.08;;;;;;;36.01;21.40;100021.75;4489664;31;34198;-75
2022/08/04 09:46:57;;;;;;;6.80;2.10;;;;;;;35.98;21.12;100024.59;4485969;31;33578;-76
2022/08/04 09:50:02;;;;;;;3.60;1.77;;;;;;;36.79;20.59;100024.38;4450772;32;33893;-76
2022/08/04 09:52:54;;;;;;;3.12;2.20;;;;;;;36.99;20.08;100015.94;4420709;32;33880;-77
2022/08/04 09:55:42;;;;;;;4.65;2.05;;;;;;;35.93;21.75;100013.19;4488423;31;33341;-76
2022/08/04 09:58:57;;;;;;;5.10;2.05;;;;;;;36.92;20.24;100011.88;4495784;31;33842;-76
2022/08/04 10:01:27;;;;;;;7.97;2.20;;;;;;;36.46;20.53;100006.53;4481580;31;34431;-78
2022/08/04 10:03:59;;;;;;;4.32;2.08;;;;;;;37.28;20.24;100002.50;4484299;32;33803;-76
2022/08/04 10:06:35;;;;;;;2.92;2.00;;;;;;;37.64;19.78;99995.69;4493920;31;33116;-76
2022/08/04 10:09:28;;;;;;;4.28;2.10;;;;;;;37.04;20.22;100002.16;4496945;31;34127;-77
2022/08/04 10:12:04;;;;;;;4.18;2.03;;;;;;;36.94;20.29;100003.69;4497163;31;33928;-79
2022/08/04 10:14:54;;;;;;;3.83;2.17;;;;;;;37.34;20.29;99998.50;4489234;31;34136;-78
2022/08/04 10:17:49;;;;;;;4.95;2.30;;;;;;;37.43;20.15;99997.91;4491412;31;34222;-76
2022/08/04 10:20:41;;;;;;;4.62;1.77;;;;;;;37.65;20.04;99986.66;4492913;31;34469;-77
2022/08/04 10:23:57;;;;;;;3.75;2.03;;;;;;;38.06;19.88;99988.44;4495885;31;34495;-76
2022/08/04 10:26:29;;;;;;;4.45;2.17;;;;;;;38.07;19.59;99984.78;4473714;31;34023;-77
2022/08/04 10:29:13;;;;;;;3.08;1.90;;;;;;;37.03;19.67;99980.63;4489507;31;32534;-77
2022/08/04 10:32:05;;;;;;;7.00;2.30;;;;;;;37.61;19.77;99985.09;4499397;31;34057;-76
2022/08/04 10:34:47;;;;;;;8.00;2.20;;;;;;;37.35;19.51;99979.50;4495490;31;34092;-76
2022/08/04 10:37:23;;;;;;;3.28;2.10;;;;;;;37.74;19.86;99977.91;4492595;31;34020;-76
2022/08/04 10:40:37;;;;;;;6.25;2.40;;;;;;;38.25;19.57;99981.81;4493997;31;33424;-77
2022/08/04 10:43:10;;;;;;;4.28;2.20;;;;;;;38.33;18.72;99982.16;4485650;31;34683;-75
2022/08/04 10:46:08;;;;;;;3.72;2.15;;;;;;;38.25;18.96;99979.09;4493230;31;34000;-78
2022/08/04 10:48:42;;;;;;;3.50;1.90;;;;;;;38.19;18.90;99974.09;4477872;31;33905;-78
2022/08/04 10:51:43;;;;;;;4.25;2.10;;;;;;;38.52;18.62;99965.53;4496564;31;33133;-76
2022/08/04 10:54:30;;;;;;;2.53;1.70;;;;;;;38.41;18.65;99965.41;4494512;31;33810;-78
2022/08/04 10:57:11;;;;;;;5.78;2.30;;;;;;;38.66;18.37;99967.31;4498601;31;33914;-77
2022/08/04 11:00:13;;;;;;;4.35;2.30;;;;;;;38.42;18.88;99959.91;4483138;32;33161;-78
2022/08/04 11:02:55;;;;;;;4.97;2.28;;;;;;;38.28;19.21;99958.13;4494259;31;32708;-80
2022/08/04 11:05:26;;;;;;;4.00;2.17;;;;;;;38.98;17.95;99950.63;4490927;31;33600;-76
2022/08/04 11:08:01;;;;;;;4.65;2.10;;;;;;;39.08;17.99;99952.59;4501969;31;33145;-77
2022/08/04 11:10:33;;;;;;;4.28;2.30;;;;;;;39.23;18.12;99953.31;4486951;31;33773;-79
2022/08/04 11:13:04;;;;;;;4.32;2.53;;;;;;;39.40;17.82;99946.66;4493013;31;33378;-78
2022/08/04 11:15:37;;;;;;;9.02;2.40;;;;;;;38.85;18.58;99950.66;4499625;31;34375;-78
2022/08/04 11:18:09;;;;;;;6.37;2.33;;;;;;;38.59;18.88;99936.22;4485837;31;34072;-78
2022/08/04 11:20:50;;;;;;;4.32;2.45;;;;;;;37.14;19.92;99948.47;4491452;31;33864;-78
2022/08/04 11:23:22;;;;;;;4.37;2.28;;;;;;;38.82;19.05;99951.72;4490928;31;34251;-76
2022/08/04 11:26:01;;;;;;;4.20;2.12;;;;;;;38.91;18.36;99948.34;4488732;31;34713;-78
2022/08/04 11:28:50;;;;;;;3.97;2.25;;;;;;;38.89;17.63;99942.19;4490685;31;34691;-79
2022/08/04 11:31:32;;;;;;;5.70;2.40;;;;;;;38.87;18.22;99943.28;4493905;31;33958;-78
2022/08/04 11:34:20;;;;;;;4.32;2.10;;;;;;;39.12;18.18;99937.84;4494343;31;33481;-77
2022/08/04 11:37:20;;;;;;;4.65;2.60;;;;;;;39.56;17.98;99949.13;4498381;31;34616;-76
2022/08/04 11:40:10;;;;;;;3.50;2.40;;;;;;;38.86;18.53;99936.97;4493089;31;34014;-79
2022/08/04 11:42:42;;;;;;;4.32;2.65;;;;;;;36.90;19.69;99934.66;4488620;31;34086;-78
2022/08/04 11:45:15;;;;;;;10.98;3.15;;;;;;;35.91;20.79;99942.34;4485871;32;33324;-78
2022/08/04 11:47:54;;;;;;;4.18;2.70;;;;;;;37.02;20.08;99930.31;4489855;31;34498;-75
2022/08/04 11:50:32;;;;;;;5.75;2.60;;;;;;;37.23;19.18;99923.56;4487537;31;33825;-78
2022/08/04 11:53:01;;;;;;;5.15;2.50;;;;;;;37.62;18.98;99923.81;4489572;31;34655;-76
2022/08/04 11:55:30;;;;;;;6.03;2.35;;;;;;;37.36;19.86;99916.41;4490984;31;33398;-75
2022/08/04 11:58:19;;;;;;;4.07;2.33;;;;;;;37.67;19.62;99914.44;4492038;31;34067;-76
2022/08/04 12:00:55;;;;;;;4.43;2.65;;;;;;;37.82;19.15;99906.25;4491395;31;34606;-75
2022/08/04 12:03:31;;;;;;;4.70;2.17;;;;;;;38.03;19.07;99902.09;4493841;31;33849;-76
2022/08/04 12:06:32;;;;;;;4.80;2.90;;;;;;;37.51;19.39;99908.25;4493424;31;33140;-77
2022/08/04 12:09:21;;;;;;;3.65;2.45;;;;;;;36.78;19.25;99899.38;4487639;31;34090;-78
2022/08/04 12:12:07;;;;;;;4.00;2.50;;;;;;;37.39;19.21;99894.56;4491958;31;33933;-76
2022/08/04 12:14:50;;;;;;;4.00;2.80;;;;;;;37.10;19.07;99903.69;4480495;31;33330;-76
2022/08/04 12:17:26;;;;;;;3.78;2.70;;;;;;;38.04;18.68;99901.13;4493512;31;33947;-77
2022/08/04 12:20:05;;;;;;;4.30;2.60;;;;;;;38.56;17.58;99880.47;4491869;31;34491;-79
2022/08/04 12:22:54;;;;;;;4.53;2.80;;;;;;;38.54;18.02;99886.00;4486897;31;34597;-76
2022/08/04 12:25:28;;;;;;;4.57;2.50;;;;;;;38.74;17.45;99889.13;4497354;31;33757;-77
2022/08/04 12:28:02;;;;;;;4.80;2.55;;;;;;;37.77;18.58;99893.91;4493667;31;34014;-76